createdAt,value
2023-05-08T00:02:24.408Z,-2.03
2023-05-08T00:04:52.746Z,-1.66
2023-05-08T00:07:20.649Z,-0.83
2023-05-08T00:09:48.590Z,-0.59
2023-05-08T00:12:16.928Z,-0.47
2023-05-08T00:14:44.960Z,-0.37
2023-05-08T00:17:13.036Z,-0.42
2023-05-08T00:19:41.427Z,-0.47
2023-05-08T00:22:09.301Z,-0.56
2023-05-08T00:24:37.388Z,-0.65
2023-05-08T00:27:05.913Z,-0.73
2023-05-08T00:29:34.523Z,-0.89
2023-05-08T00:32:02.717Z,-1.30
2023-05-08T00:34:30.959Z,-1.09
2023-05-08T00:36:59.027Z,-1.07
2023-05-08T00:39:27.136Z,-1.33
2023-05-08T00:41:55.800Z,-1.48
2023-05-08T00:44:23.607Z,-1.36
2023-05-08T00:46:51.784Z,-1.53
2023-05-08T00:49:20.859Z,-1.17
2023-05-08T00:51:51.694Z,-1.14
2023-05-08T00:54:20.784Z,-1.19
2023-05-08T00:56:51.146Z,-1.24
2023-05-08T00:59:22.615Z,-1.32
2023-05-08T01:01:52.564Z,-1.19
2023-05-08T01:04:23.522Z,-1.35
2023-05-08T01:06:51.726Z,-1.50
2023-05-08T01:09:19.605Z,-1.27
2023-05-08T01:12:23.547Z,-1.35
2023-05-08T01:15:03.829Z,-1.96
2023-05-08T01:18:13.578Z,-2.59
2023-05-08T01:21:01.480Z,-2.38
2023-05-08T01:23:48.278Z,-2.75
2023-05-08T01:27:03.684Z,-2.80
2023-05-08T01:29:53.158Z,-2.96
2023-05-08T01:32:43.310Z,-3.01
2023-05-08T01:35:35.014Z,-3.02
2023-05-08T01:38:48.137Z,-2.85
2023-05-08T01:41:30.984Z,-2.76
2023-05-08T01:44:25.839Z,-2.57
2023-05-08T01:46:56.677Z,-2.21
2023-05-08T01:49:28.851Z,-1.87
2023-05-08T01:52:05.633Z,-1.51
2023-05-08T01:54:59.322Z,-1.67
2023-05-08T01:57:30.269Z,-1.58
2023-05-08T02:00:01.488Z,-1.85
2023-05-08T02:02:35.045Z,-1.64
2023-05-08T02:05:05.717Z,-1.46
2023-05-08T02:07:38.315Z,-1.37
2023-05-08T02:10:08.689Z,-1.58
2023-05-08T02:12:38.599Z,-1.47
2023-05-08T02:15:09.661Z,-1.38
2023-05-08T02:17:41.266Z,-1.23
2023-05-08T02:20:15.683Z,-1.27
2023-05-08T02:22:45.872Z,-1.27
2023-05-08T02:25:16.576Z,-1.53
2023-05-08T02:27:47.224Z,-1.26
2023-05-08T02:30:17.930Z,-1.28
2023-05-08T02:32:48.421Z,-1.19
2023-05-08T02:35:19.136Z,-1.03
2023-05-08T02:37:52.269Z,-0.90
2023-05-08T02:40:25.519Z,-0.96
2023-05-08T02:42:53.989Z,-0.86
2023-05-08T02:45:27.642Z,-0.69
2023-05-08T02:48:16.220Z,-0.72
2023-05-08T02:51:07.550Z,-0.41
2023-05-08T02:53:41.483Z,-0.31
2023-05-08T02:56:19.145Z,-0.23
2023-05-08T02:59:00.288Z,-0.16
2023-05-08T03:01:54.644Z,-0.12
2023-05-08T03:04:30.226Z,-0.03
2023-05-08T03:06:59.459Z,-0.07
2023-05-08T03:09:39.375Z,-0.26
2023-05-08T03:12:13.365Z,-0.17
2023-05-08T03:14:53.280Z,0.13
2023-05-08T03:17:23.442Z,0.28
2023-05-08T03:19:58.445Z,0.21
2023-05-08T03:22:30.715Z,0.44
2023-05-08T03:25:02.909Z,0.67
2023-05-08T03:27:33.976Z,0.93
2023-05-08T03:30:02.757Z,1.06
2023-05-08T03:32:35.911Z,1.26
2023-05-08T03:35:05.911Z,1.34
2023-05-08T03:37:34.366Z,1.56
2023-05-08T03:40:02.660Z,1.76
2023-05-08T03:42:31.983Z,1.97
2023-05-08T03:45:03.342Z,2.11
2023-05-08T03:47:33.603Z,2.30
2023-05-08T03:50:02.301Z,2.53
2023-05-08T03:52:32.959Z,2.79
2023-05-08T03:55:02.090Z,3.05
2023-05-08T03:57:45.240Z,3.32
2023-05-08T04:00:35.045Z,3.60
2023-05-08T04:03:28.182Z,3.60
2023-05-08T04:06:17.867Z,4.17
2023-05-08T04:08:54.634Z,4.29
2023-05-08T04:11:34.564Z,4.97
2023-05-08T04:14:08.087Z,4.92
2023-05-08T04:16:39.146Z,5.72
2023-05-08T04:19:15.956Z,5.47
2023-05-08T04:21:45.083Z,5.52
2023-05-08T04:24:16.313Z,6.57
2023-05-08T04:26:46.166Z,6.67
2023-05-08T04:29:15.063Z,6.50
2023-05-08T04:31:44.599Z,5.67
2023-05-08T04:34:13.263Z,6.22
2023-05-08T04:36:41.789Z,6.56
2023-05-08T04:39:10.670Z,7.23
2023-05-08T04:41:38.884Z,8.43
2023-05-08T04:44:07.286Z,7.88
2023-05-08T04:46:35.719Z,9.42
2023-05-08T04:49:03.889Z,9.83
2023-05-08T04:51:32.377Z,9.27
2023-05-08T04:54:00.712Z,10.16
2023-05-08T04:56:28.910Z,10.61
2023-05-08T04:58:57.380Z,10.96
2023-05-08T05:01:25.537Z,10.80
2023-05-08T05:03:53.643Z,11.62
2023-05-08T05:06:22.247Z,9.56
2023-05-08T05:08:50.192Z,10.65
2023-05-08T05:11:18.590Z,11.99
2023-05-08T05:13:47.004Z,12.39
2023-05-08T05:16:14.993Z,11.71
2023-05-08T05:18:43.073Z,9.75
2023-05-08T05:21:11.869Z,11.87
2023-05-08T05:23:39.934Z,10.76
2023-05-08T05:26:08.426Z,12.47
2023-05-08T05:28:36.959Z,10.51
2023-05-08T05:31:05.436Z,12.16
2023-05-08T05:33:33.745Z,12.68
2023-05-08T05:36:02.785Z,13.59
2023-05-08T05:38:30.787Z,13.54
2023-05-08T05:40:58.769Z,14.73
2023-05-08T05:43:27.360Z,14.45
2023-05-08T05:45:56.650Z,15.41
2023-05-08T05:48:25.184Z,16.06
2023-05-08T05:50:53.718Z,16.06
2023-05-08T05:53:22.216Z,16.71
2023-05-08T05:55:53.950Z,16.88
2023-05-08T05:58:22.953Z,17.23
2023-05-08T06:00:51.932Z,17.60
2023-05-08T06:03:20.553Z,17.77
2023-05-08T06:05:48.812Z,16.93
2023-05-08T06:08:18.303Z,15.66
2023-05-08T06:10:47.295Z,14.81
2023-05-08T06:13:15.997Z,12.74
2023-05-08T06:15:44.693Z,16.30
2023-05-08T06:18:14.169Z,16.47
2023-05-08T06:20:42.508Z,16.66
2023-05-08T06:23:10.796Z,17.06
2023-05-08T06:25:39.462Z,17.10
2023-05-08T06:28:08.560Z,18.14
2023-05-08T06:30:36.764Z,16.83
2023-05-08T06:33:05.407Z,18.83
2023-05-08T06:35:33.735Z,11.56
2023-05-08T06:38:02.280Z,17.32
2023-05-08T06:40:30.891Z,15.42
2023-05-08T06:42:59.049Z,15.74
2023-05-08T06:45:27.548Z,13.02
2023-05-08T06:47:56.110Z,17.70
2023-05-08T06:50:24.227Z,18.51
2023-05-08T06:52:52.136Z,19.37
2023-05-08T06:55:20.629Z,17.06
2023-05-08T06:57:48.695Z,16.05
2023-05-08T07:00:17.044Z,17.55
2023-05-08T07:02:45.597Z,18.19
2023-05-08T07:05:13.983Z,18.68
2023-05-08T07:07:43.110Z,18.63
2023-05-08T07:10:11.752Z,18.03
2023-05-08T07:12:52.055Z,16.38
2023-05-08T07:15:26.496Z,14.93
2023-05-08T07:17:55.305Z,15.93
2023-05-08T07:20:33.155Z,15.63
2023-05-08T07:23:01.869Z,17.71
2023-05-08T07:25:47.696Z,16.08
2023-05-08T07:28:32.785Z,13.91
2023-05-08T07:31:07.775Z,14.07
2023-05-08T07:33:48.838Z,13.07
2023-05-08T07:36:17.445Z,9.45
2023-05-08T07:38:46.120Z,9.13
2023-05-08T07:41:17.604Z,9.42
2023-05-08T07:43:58.735Z,11.63
2023-05-08T07:46:27.058Z,12.05
2023-05-08T07:49:07.821Z,10.00
2023-05-08T07:51:36.100Z,10.16
2023-05-08T07:54:04.274Z,11.27
2023-05-08T07:56:32.909Z,11.37
2023-05-08T07:59:01.102Z,14.95
2023-05-08T08:01:29.608Z,13.76
2023-05-08T08:04:01.478Z,15.91
2023-05-08T08:06:29.926Z,15.59
2023-05-08T08:08:58.737Z,14.24
2023-05-08T08:11:26.752Z,11.80
2023-05-08T08:14:07.050Z,13.06
2023-05-08T08:16:35.468Z,11.54
2023-05-08T08:19:03.980Z,10.76
2023-05-08T08:21:32.016Z,12.67
2023-05-08T08:24:00.834Z,13.61
2023-05-08T08:26:29.423Z,11.82
2023-05-08T08:28:57.752Z,10.54
2023-05-08T08:31:26.324Z,11.06
2023-05-08T08:34:06.927Z,11.33
2023-05-08T08:39:33.988Z,10.22
2023-05-08T08:42:10.074Z,10.32
2023-05-08T08:44:45.145Z,10.06
2023-05-08T08:47:30.179Z,10.26
2023-05-08T08:50:03.721Z,10.20
2023-05-08T08:52:41.071Z,10.45
2023-05-08T08:55:17.264Z,11.75
2023-05-08T08:58:14.656Z,12.16
2023-05-08T09:00:43.752Z,12.28
2023-05-08T09:03:12.726Z,14.65
2023-05-08T09:05:41.587Z,13.00
2023-05-08T09:08:11.187Z,12.81
2023-05-08T09:10:39.935Z,11.98
2023-05-08T09:13:17.413Z,11.68
2023-05-08T09:15:51.162Z,13.14
2023-05-08T09:21:09.288Z,12.75
2023-05-08T09:24:18.275Z,13.48
2023-05-08T09:27:08.713Z,12.42
2023-05-08T09:29:39.590Z,10.58
2023-05-08T09:37:44.212Z,12.85
2023-05-08T09:40:22.689Z,12.60
2023-05-08T09:42:51.587Z,12.79
2023-05-08T09:45:49.723Z,17.32
2023-05-08T09:48:40.240Z,17.94
2023-05-08T09:51:08.746Z,17.35
2023-05-08T09:53:42.165Z,19.18
2023-05-08T09:56:10.475Z,22.17
2023-05-08T09:58:41.463Z,22.35
2023-05-08T10:01:35.210Z,21.04
2023-05-08T10:04:06.370Z,15.88
2023-05-08T10:06:36.864Z,21.56
2023-05-08T10:09:15.975Z,19.89
2023-05-08T10:11:53.983Z,17.06
2023-05-08T10:14:27.236Z,17.24
2023-05-08T10:16:55.809Z,12.10
2023-05-08T10:19:29.010Z,11.93
2023-05-08T10:24:47.531Z,14.49
2023-05-08T10:28:11.436Z,12.29
2023-05-08T10:30:51.051Z,12.25
2023-05-08T10:33:25.296Z,12.65
2023-05-08T10:35:57.429Z,12.56
2023-05-08T10:38:26.735Z,12.72
2023-05-08T10:40:58.421Z,12.26
2023-05-08T10:43:29.074Z,11.76
2023-05-08T10:45:59.416Z,11.15
2023-05-08T10:48:39.682Z,10.59
2023-05-08T10:51:22.736Z,11.29
2023-05-08T10:54:08.911Z,11.64
2023-05-08T10:56:39.990Z,11.74
2023-05-08T10:59:21.514Z,12.04
2023-05-08T11:01:50.956Z,13.86
2023-05-08T11:04:24.744Z,13.50
2023-05-08T11:06:53.875Z,13.51
2023-05-08T11:09:44.106Z,16.37
2023-05-08T11:12:26.221Z,18.97
2023-05-08T11:15:07.047Z,16.70
2023-05-08T11:17:35.903Z,17.02
2023-05-08T11:20:07.371Z,14.99
2023-05-08T11:22:37.504Z,14.30
2023-05-08T11:25:14.844Z,13.14
2023-05-08T11:28:06.837Z,12.15
2023-05-08T11:30:39.909Z,13.92
2023-05-08T11:33:11.502Z,12.97
2023-05-08T11:35:57.453Z,12.15
2023-05-08T11:38:28.644Z,11.95
2023-05-08T11:40:58.961Z,10.69
2023-05-08T11:43:34.053Z,10.96
2023-05-08T11:46:20.725Z,11.21
2023-05-08T11:48:50.216Z,11.66
2023-05-08T11:51:20.571Z,11.29
2023-05-08T11:53:48.961Z,11.59
2023-05-08T11:56:20.793Z,12.58
2023-05-08T11:58:49.032Z,12.79
2023-05-08T12:01:21.386Z,12.84
2023-05-08T12:03:50.183Z,12.89
2023-05-08T12:06:19.828Z,12.71
2023-05-08T12:08:48.183Z,12.09
2023-05-08T12:11:24.691Z,11.68
2023-05-08T12:13:54.274Z,11.21
2023-05-08T12:16:26.649Z,11.31
2023-05-08T12:18:57.359Z,11.05
2023-05-08T12:21:25.933Z,11.67
2023-05-08T12:23:56.647Z,11.62
2023-05-08T12:26:25.045Z,12.66
2023-05-08T12:28:58.115Z,11.50
2023-05-08T12:31:29.429Z,11.41
2023-05-08T12:33:58.568Z,11.96
2023-05-08T12:36:27.641Z,13.20
2023-05-08T12:39:13.311Z,14.85
2023-05-08T12:41:52.255Z,15.04
2023-05-08T12:44:22.732Z,14.63
2023-05-08T12:46:57.110Z,14.89
2023-05-08T12:49:30.935Z,13.84
2023-05-08T12:52:08.477Z,14.35
2023-05-08T12:54:41.705Z,12.94
2023-05-08T12:57:22.743Z,13.13
2023-05-08T13:00:12.629Z,11.65
2023-05-08T13:02:54.208Z,12.06
2023-05-08T13:05:24.278Z,11.14
2023-05-08T13:07:52.891Z,10.72
2023-05-08T13:10:23.956Z,11.12
2023-05-08T13:12:53.614Z,10.79
2023-05-08T13:15:21.679Z,10.94
2023-05-08T13:17:50.181Z,10.80
2023-05-08T13:20:18.744Z,10.88
2023-05-08T13:22:46.795Z,11.26
2023-05-08T13:25:15.587Z,11.48
2023-05-08T13:27:44.560Z,11.49
2023-05-08T13:30:15.876Z,11.85
2023-05-08T13:32:51.824Z,12.33
2023-05-08T13:38:06.995Z,13.94
2023-05-08T13:40:35.550Z,13.69
2023-05-08T13:43:03.865Z,11.98
2023-05-08T13:45:33.524Z,11.11
2023-05-08T13:48:02.023Z,10.85
2023-05-08T13:50:41.611Z,11.30
2023-05-08T13:56:03.632Z,10.98
2023-05-08T13:58:48.445Z,12.22
2023-05-08T14:01:26.313Z,11.47
2023-05-08T14:03:58.165Z,11.01
2023-05-08T14:06:27.262Z,10.87
2023-05-08T14:08:57.168Z,11.07
2023-05-08T14:14:12.079Z,12.10
2023-05-08T14:16:40.488Z,12.63
2023-05-08T14:19:08.955Z,12.86
2023-05-08T14:21:38.028Z,13.23
2023-05-08T14:24:08.511Z,13.37
2023-05-08T14:29:23.333Z,12.13
2023-05-08T14:31:52.791Z,14.38
2023-05-08T14:34:35.437Z,14.84
2023-05-08T14:37:11.187Z,13.77
2023-05-08T14:39:39.983Z,12.94
2023-05-08T14:44:54.526Z,11.70
2023-05-08T14:47:24.636Z,11.65
2023-05-08T14:49:56.646Z,11.06
2023-05-08T14:52:25.603Z,10.81
2023-05-08T14:54:56.699Z,10.84
2023-05-08T14:57:41.642Z,10.64
2023-05-08T15:00:21.840Z,10.79
2023-05-08T15:02:50.948Z,11.72
2023-05-08T15:05:20.503Z,11.77
2023-05-08T15:07:50.600Z,11.77
2023-05-08T15:10:30.965Z,12.64
2023-05-08T15:13:02.254Z,12.43
2023-05-08T15:15:31.376Z,12.11
2023-05-08T15:18:00.410Z,12.17
2023-05-08T15:20:29.259Z,12.13
2023-05-08T15:22:58.124Z,11.67
2023-05-08T15:25:26.493Z,11.81
2023-05-08T15:31:08.642Z,13.11
2023-05-08T15:36:23.260Z,12.72
2023-05-08T15:38:51.585Z,12.67
2023-05-08T15:41:27.215Z,12.17
2023-05-08T15:43:55.748Z,12.32
2023-05-08T15:46:23.780Z,13.09
2023-05-08T15:48:54.230Z,12.97
2023-05-08T15:51:22.967Z,15.13
2023-05-08T15:53:52.887Z,17.33
2023-05-08T15:59:10.779Z,15.60
2023-05-08T16:01:39.562Z,13.86
2023-05-08T16:04:11.176Z,13.27
2023-05-08T16:06:39.443Z,13.81
2023-05-08T16:09:08.428Z,14.59
2023-05-08T16:11:37.074Z,15.08
2023-05-08T16:14:05.328Z,14.51
2023-05-08T16:16:33.993Z,12.74
2023-05-08T16:19:02.155Z,11.91
2023-05-08T16:21:30.393Z,11.79
2023-05-08T16:23:59.051Z,11.68
2023-05-08T16:26:27.387Z,11.21
2023-05-08T16:28:55.848Z,11.24
2023-05-08T16:31:24.733Z,11.31
2023-05-08T16:36:39.469Z,11.00
2023-05-08T16:39:08.318Z,10.90
2023-05-08T16:41:36.828Z,10.76
2023-05-08T16:44:05.883Z,10.69
2023-05-08T16:46:34.800Z,10.51
2023-05-08T16:49:02.924Z,10.81
2023-05-08T16:51:32.752Z,10.81
2023-05-08T16:54:01.255Z,11.12
2023-05-08T16:56:29.382Z,10.82
2023-05-08T16:58:58.717Z,10.54
2023-05-08T17:01:29.410Z,10.36
2023-05-08T17:04:00.668Z,10.34
2023-05-08T17:06:28.928Z,10.21
2023-05-08T17:08:57.803Z,10.00
2023-05-08T17:11:26.375Z,9.97
2023-05-08T17:13:54.571Z,9.87
2023-05-08T17:16:23.680Z,10.07
2023-05-08T17:18:51.905Z,10.18
2023-05-08T17:21:20.377Z,10.10
2023-05-08T17:23:49.889Z,10.33
2023-05-08T17:26:18.795Z,10.22
2023-05-08T17:28:47.148Z,10.22
2023-05-08T17:31:16.282Z,10.16
2023-05-08T17:33:44.271Z,9.70
2023-05-08T17:36:12.682Z,9.21
2023-05-08T17:38:46.249Z,8.84
2023-05-08T17:41:14.860Z,8.35
2023-05-08T17:43:43.584Z,8.61
2023-05-08T17:46:17.985Z,8.67
2023-05-08T17:48:49.795Z,8.09
2023-05-08T17:51:18.654Z,7.41
2023-05-08T17:53:47.614Z,6.72
2023-05-08T17:56:20.979Z,6.38
2023-05-08T17:58:51.046Z,6.30
2023-05-08T18:01:21.481Z,6.35
2023-05-08T18:03:52.946Z,6.98
2023-05-08T18:06:22.039Z,7.64
2023-05-08T18:08:50.605Z,8.03
2023-05-08T18:11:24.302Z,8.19
2023-05-08T18:13:57.267Z,8.16
2023-05-08T18:16:26.004Z,8.08
2023-05-08T18:18:55.442Z,7.63
2023-05-08T18:21:25.133Z,6.91
2023-05-08T18:23:54.541Z,5.17
2023-05-08T18:26:23.607Z,4.49
2023-05-08T18:28:52.944Z,4.62
2023-05-08T18:31:21.583Z,5.23
2023-05-08T18:33:51.651Z,6.10
2023-05-08T18:36:21.213Z,6.84
2023-05-08T18:38:50.332Z,5.45
2023-05-08T18:41:19.090Z,4.16
2023-05-08T18:43:51.388Z,5.53
2023-05-08T18:46:20.639Z,6.41
2023-05-08T18:48:49.918Z,6.53
2023-05-08T18:51:19.592Z,5.07
2023-05-08T18:54:43.903Z,3.46
2023-05-08T19:00:06.981Z,3.47
2023-05-08T19:02:35.300Z,3.09
2023-05-08T19:05:03.633Z,3.27
2023-05-08T19:07:32.363Z,5.03
2023-05-08T19:10:00.782Z,4.39
2023-05-08T19:12:29.611Z,5.33
2023-05-08T19:14:58.366Z,4.62
2023-05-08T19:17:26.401Z,4.74
2023-05-08T19:19:55.255Z,4.24
2023-05-08T19:22:23.959Z,4.07
2023-05-08T19:24:52.185Z,4.15
2023-05-08T19:27:20.463Z,3.27
2023-05-08T19:29:49.028Z,2.74
2023-05-08T19:32:17.289Z,2.82
2023-05-08T19:34:45.466Z,2.74
2023-05-08T19:37:17.334Z,3.87
2023-05-08T19:39:48.821Z,4.54
2023-05-08T19:42:17.334Z,4.55
2023-05-08T19:44:45.652Z,4.21
2023-05-08T19:47:14.704Z,4.30
2023-05-08T19:49:43.666Z,4.60
2023-05-08T19:52:12.243Z,4.56
2023-05-08T19:54:40.363Z,4.47
2023-05-08T19:57:08.991Z,4.48
2023-05-08T19:59:37.635Z,4.64
2023-05-08T20:02:08.753Z,4.86
2023-05-08T20:04:48.629Z,4.79
2023-05-08T20:07:25.180Z,4.63
2023-05-08T20:09:53.742Z,4.32
2023-05-08T20:12:21.953Z,3.92
2023-05-08T20:14:50.239Z,3.19
2023-05-08T20:17:18.798Z,2.77
2023-05-08T20:19:47.049Z,3.01
2023-05-08T20:22:15.210Z,3.11
2023-05-08T20:24:43.459Z,2.13
2023-05-08T20:27:11.698Z,2.11
2023-05-08T20:29:39.875Z,2.43
2023-05-08T20:32:08.561Z,2.64
2023-05-08T20:34:36.643Z,2.84
2023-05-08T20:37:04.651Z,3.28
2023-05-08T20:39:33.041Z,3.44
2023-05-08T20:42:01.118Z,3.68
2023-05-08T20:44:28.966Z,3.46
2023-05-08T20:46:57.197Z,3.31
2023-05-08T20:49:25.379Z,3.17
2023-05-08T20:51:53.350Z,2.70
2023-05-08T20:54:21.838Z,2.23
2023-05-08T20:56:50.153Z,2.81
2023-05-08T20:59:19.104Z,2.72
2023-05-08T21:01:48.697Z,2.70
2023-05-08T21:04:17.008Z,3.19
2023-05-08T21:06:45.039Z,3.26
2023-05-08T21:09:13.454Z,3.50
2023-05-08T21:11:41.494Z,3.89
2023-05-08T21:14:09.605Z,3.55
2023-05-08T21:16:38.233Z,3.80
2023-05-08T21:19:06.338Z,3.62
2023-05-08T21:21:35.455Z,3.18
2023-05-08T21:24:04.635Z,3.06
2023-05-08T21:26:32.645Z,2.97
2023-05-08T21:29:00.900Z,3.13
2023-05-08T21:31:29.398Z,2.83
2023-05-08T21:33:57.664Z,2.99
2023-05-08T21:36:25.803Z,2.35
2023-05-08T21:38:54.204Z,1.62
2023-05-08T21:41:22.737Z,1.34
2023-05-08T21:43:51.068Z,1.22
2023-05-08T21:46:19.363Z,1.20
2023-05-08T21:48:47.423Z,1.15
2023-05-08T21:51:15.383Z,1.11
2023-05-08T21:53:43.635Z,1.06
2023-05-08T21:56:11.434Z,1.08
2023-05-08T21:58:39.352Z,1.09
2023-05-08T22:01:07.741Z,2.55
2023-05-08T22:03:36.159Z,2.81
2023-05-08T22:06:04.346Z,2.88
2023-05-08T22:08:32.390Z,2.16
2023-05-08T22:11:00.983Z,1.87
2023-05-08T22:13:30.935Z,1.75
2023-05-08T22:15:59.059Z,1.59
2023-05-08T22:18:27.423Z,1.27
2023-05-08T22:20:55.576Z,1.45
2023-05-08T22:23:23.513Z,1.44
2023-05-08T22:25:52.097Z,1.38
2023-05-08T22:28:20.163Z,1.22
2023-05-08T22:30:48.195Z,1.34
2023-05-08T22:33:16.664Z,1.81
2023-05-08T22:35:44.694Z,2.30
2023-05-08T22:38:12.715Z,2.00
2023-05-08T22:40:42.761Z,1.81
2023-05-08T22:43:10.918Z,1.32
2023-05-08T22:45:39.057Z,1.11
2023-05-08T22:48:07.834Z,0.97
2023-05-08T22:50:37.023Z,0.83
2023-05-08T22:53:08.832Z,0.59
2023-05-08T22:55:37.861Z,0.35
2023-05-08T22:58:05.894Z,0.41
2023-05-08T23:00:33.904Z,0.44
2023-05-08T23:03:02.454Z,0.27
2023-05-08T23:05:30.488Z,0.17
2023-05-08T23:07:58.555Z,0.14
2023-05-08T23:10:27.055Z,0.03
2023-05-08T23:12:54.940Z,0.00
2023-05-08T23:15:22.908Z,0.03
2023-05-08T23:17:51.323Z,-0.09
2023-05-08T23:20:19.508Z,-0.09
2023-05-08T23:22:47.565Z,-0.13
2023-05-08T23:25:16.164Z,-0.15
2023-05-08T23:27:44.289Z,-0.31
2023-05-08T23:30:13.577Z,-0.68
2023-05-08T23:32:42.025Z,-0.99
2023-05-08T23:35:11.044Z,-0.76
2023-05-08T23:37:39.125Z,-0.98
2023-05-08T23:40:08.231Z,-0.39
2023-05-08T23:42:37.539Z,-0.31
2023-05-08T23:45:06.651Z,-0.31
2023-05-08T23:47:34.894Z,-0.37
2023-05-08T23:50:02.987Z,-0.22
2023-05-08T23:52:32.270Z,-0.04
2023-05-08T23:55:01.717Z,-0.15
2023-05-08T23:57:31.850Z,0.26
